sensor_id;sensor_type;location;lat;lon;timestamp;P1;durP1;ratioP1;P2;durP2;ratioP2
10059;SDS011;5069;49.306;8.636;2022-11-20T00:01:49;8.33;;;6.77;;
10059;SDS011;5069;49.306;8.636;2022-11-20T00:04:51;8.03;;;6.53;;
10059;SDS011;5069;49.306;8.636;2022-11-20T00:07:52;7.83;;;6.57;;
10059;SDS011;5069;49.306;8.636;2022-11-20T00:10:54;7.00;;;5.97;;
10059;SDS011;5069;49.306;8.636;2022-11-20T00:13:56;8.57;;;6.60;;
10059;SDS011;5069;49.306;8.636;2022-11-20T00:16:59;7.70;;;6.70;;
10059;SDS011;5069;49.306;8.636;2022-11-20T00:20:00;8.83;;;7.00;;
10059;SDS011;5069;49.306;8.636;2022-11-20T00:23:01;7.73;;;6.53;;
10059;SDS011;5069;49.306;8.636;2022-11-20T00:26:03;7.83;;;6.47;;
10059;SDS011;5069;49.306;8.636;2022-11-20T00:29:08;10.00;;;7.57;;
10059;SDS011;5069;49.306;8.636;2022-11-20T00:32:10;6.70;;;6.00;;
10059;SDS011;5069;49.306;8.636;2022-11-20T00:35:12;7.17;;;5.90;;
10059;SDS011;5069;49.306;8.636;2022-11-20T00:38:13;8.07;;;6.00;;
10059;SDS011;5069;49.306;8.636;2022-11-20T00:41:15;7.77;;;6.50;;
10059;SDS011;5069;49.306;8.636;2022-11-20T00:44:17;8.97;;;6.07;;
10059;SDS011;5069;49.306;8.636;2022-11-20T00:47:18;7.33;;;5.73;;
10059;SDS011;5069;49.306;8.636;2022-11-20T00:50:19;7.90;;;6.20;;
10059;SDS011;5069;49.306;8.636;2022-11-20T00:53:21;7.77;;;6.50;;
10059;SDS011;5069;49.306;8.636;2022-11-20T00:56:23;7.73;;;6.30;;
10059;SDS011;5069;49.306;8.636;2022-11-20T00:59:25;8.20;;;6.53;;
10059;SDS011;5069;49.306;8.636;2022-11-20T01:02:26;7.57;;;6.23;;
10059;SDS011;5069;49.306;8.636;2022-11-20T01:05:27;7.13;;;6.00;;
10059;SDS011;5069;49.306;8.636;2022-11-20T01:08:30;6.57;;;5.73;;
10059;SDS011;5069;49.306;8.636;2022-11-20T01:11:34;7.20;;;5.93;;
10059;SDS011;5069;49.306;8.636;2022-11-20T01:14:37;8.37;;;6.83;;
10059;SDS011;5069;49.306;8.636;2022-11-20T01:17:39;7.17;;;6.30;;
10059;SDS011;5069;49.306;8.636;2022-11-20T01:20:40;7.10;;;5.87;;
10059;SDS011;5069;49.306;8.636;2022-11-20T01:23:42;7.00;;;6.30;;
10059;SDS011;5069;49.306;8.636;2022-11-20T01:26:45;6.83;;;5.80;;
10059;SDS011;5069;49.306;8.636;2022-11-20T01:29:48;7.93;;;6.03;;
10059;SDS011;5069;49.306;8.636;2022-11-20T01:32:50;6.57;;;5.87;;
10059;SDS011;5069;49.306;8.636;2022-11-20T01:35:52;7.47;;;5.60;;
10059;SDS011;5069;49.306;8.636;2022-11-20T01:38:54;7.20;;;6.23;;
10059;SDS011;5069;49.306;8.636;2022-11-20T01:41:57;7.60;;;6.07;;
10059;SDS011;5069;49.306;8.636;2022-11-20T01:48:58;6.97;;;5.90;;
10059;SDS011;5069;49.306;8.636;2022-11-20T01:52:04;8.67;;;6.43;;
10059;SDS011;5069;49.306;8.636;2022-11-20T01:55:28;8.10;;;6.40;;
10059;SDS011;5069;49.306;8.636;2022-11-20T01:58:36;8.00;;;6.37;;
10059;SDS011;5069;49.306;8.636;2022-11-20T02:01:40;9.73;;;7.43;;
10059;SDS011;5069;49.306;8.636;2022-11-20T02:04:42;9.30;;;7.40;;
10059;SDS011;5069;49.306;8.636;2022-11-20T02:07:44;8.80;;;6.90;;
10059;SDS011;5069;49.306;8.636;2022-11-20T02:10:47;9.37;;;7.07;;
10059;SDS011;5069;49.306;8.636;2022-11-20T02:13:48;9.73;;;7.10;;
10059;SDS011;5069;49.306;8.636;2022-11-20T02:16:51;7.97;;;6.70;;
10059;SDS011;5069;49.306;8.636;2022-11-20T02:19:53;10.30;;;7.30;;
10059;SDS011;5069;49.306;8.636;2022-11-20T02:22:56;9.27;;;6.50;;
10059;SDS011;5069;49.306;8.636;2022-11-20T02:26:05;8.80;;;7.00;;
10059;SDS011;5069;49.306;8.636;2022-11-20T02:29:13;8.83;;;7.27;;
10059;SDS011;5069;49.306;8.636;2022-11-20T02:32:21;8.17;;;6.53;;
10059;SDS011;5069;49.306;8.636;2022-11-20T02:38:26;10.20;;;7.67;;
10059;SDS011;5069;49.306;8.636;2022-11-20T02:41:32;10.40;;;7.27;;
10059;SDS011;5069;49.306;8.636;2022-11-20T02:44:34;10.50;;;7.83;;
10059;SDS011;5069;49.306;8.636;2022-11-20T02:47:36;9.47;;;7.40;;
10059;SDS011;5069;49.306;8.636;2022-11-20T02:50:38;11.80;;;8.83;;
10059;SDS011;5069;49.306;8.636;2022-11-20T02:53:40;9.83;;;7.93;;
10059;SDS011;5069;49.306;8.636;2022-11-20T02:56:42;10.20;;;7.53;;
10059;SDS011;5069;49.306;8.636;2022-11-20T02:59:44;9.50;;;7.60;;
10059;SDS011;5069;49.306;8.636;2022-11-20T03:02:45;11.50;;;7.90;;
10059;SDS011;5069;49.306;8.636;2022-11-20T03:05:47;9.60;;;7.53;;
10059;SDS011;5069;49.306;8.636;2022-11-20T03:08:48;11.97;;;8.20;;
10059;SDS011;5069;49.306;8.636;2022-11-20T03:11:50;12.13;;;9.40;;
10059;SDS011;5069;49.306;8.636;2022-11-20T03:14:51;10.47;;;8.03;;
10059;SDS011;5069;49.306;8.636;2022-11-20T03:17:54;12.70;;;9.10;;
10059;SDS011;5069;49.306;8.636;2022-11-20T03:20:59;13.20;;;9.40;;
10059;SDS011;5069;49.306;8.636;2022-11-20T03:24:00;12.10;;;9.20;;
10059;SDS011;5069;49.306;8.636;2022-11-20T03:27:03;10.30;;;8.50;;
10059;SDS011;5069;49.306;8.636;2022-11-20T03:30:04;13.53;;;8.83;;
10059;SDS011;5069;49.306;8.636;2022-11-20T03:33:06;11.87;;;9.07;;
10059;SDS011;5069;49.306;8.636;2022-11-20T03:36:09;11.13;;;8.67;;
10059;SDS011;5069;49.306;8.636;2022-11-20T03:39:12;13.07;;;8.80;;
10059;SDS011;5069;49.306;8.636;2022-11-20T03:42:14;13.33;;;8.73;;
10059;SDS011;5069;49.306;8.636;2022-11-20T03:45:51;14.87;;;9.70;;
10059;SDS011;5069;49.306;8.636;2022-11-20T03:48:53;13.20;;;9.43;;
10059;SDS011;5069;49.306;8.636;2022-11-20T03:51:54;12.43;;;9.63;;
10059;SDS011;5069;49.306;8.636;2022-11-20T03:54:56;12.57;;;9.17;;
10059;SDS011;5069;49.306;8.636;2022-11-20T03:57:57;11.93;;;9.27;;
10059;SDS011;5069;49.306;8.636;2022-11-20T04:01:03;12.73;;;9.43;;
10059;SDS011;5069;49.306;8.636;2022-11-20T04:04:06;11.50;;;8.43;;
10059;SDS011;5069;49.306;8.636;2022-11-20T04:07:07;11.27;;;8.73;;
10059;SDS011;5069;49.306;8.636;2022-11-20T04:10:09;12.87;;;9.43;;
10059;SDS011;5069;49.306;8.636;2022-11-20T04:13:10;14.47;;;9.50;;
10059;SDS011;5069;49.306;8.636;2022-11-20T04:16:12;13.90;;;9.20;;
10059;SDS011;5069;49.306;8.636;2022-11-20T04:19:14;12.90;;;9.43;;
10059;SDS011;5069;49.306;8.636;2022-11-20T04:22:17;12.07;;;9.20;;
10059;SDS011;5069;49.306;8.636;2022-11-20T04:25:18;11.07;;;9.20;;
10059;SDS011;5069;49.306;8.636;2022-11-20T04:28:19;11.07;;;8.70;;
10059;SDS011;5069;49.306;8.636;2022-11-20T04:31:22;12.03;;;8.53;;
10059;SDS011;5069;49.306;8.636;2022-11-20T04:34:25;11.83;;;8.90;;
10059;SDS011;5069;49.306;8.636;2022-11-20T04:37:27;11.37;;;8.57;;
10059;SDS011;5069;49.306;8.636;2022-11-20T04:40:28;14.77;;;8.77;;
10059;SDS011;5069;49.306;8.636;2022-11-20T04:43:30;10.97;;;7.57;;
10059;SDS011;5069;49.306;8.636;2022-11-20T04:46:37;16.13;;;8.60;;
10059;SDS011;5069;49.306;8.636;2022-11-20T04:49:42;11.20;;;8.77;;
10059;SDS011;5069;49.306;8.636;2022-11-20T04:52:44;11.60;;;8.20;;
10059;SDS011;5069;49.306;8.636;2022-11-20T04:55:45;11.50;;;8.40;;
10059;SDS011;5069;49.306;8.636;2022-11-20T04:58:46;10.30;;;7.97;;
10059;SDS011;5069;49.306;8.636;2022-11-20T05:01:48;13.30;;;9.87;;
10059;SDS011;5069;49.306;8.636;2022-11-20T05:04:49;11.17;;;7.77;;
10059;SDS011;5069;49.306;8.636;2022-11-20T05:07:51;9.97;;;8.30;;
10059;SDS011;5069;49.306;8.636;2022-11-20T05:10:52;11.70;;;8.97;;
10059;SDS011;5069;49.306;8.636;2022-11-20T05:13:54;16.70;;;9.53;;
10059;SDS011;5069;49.306;8.636;2022-11-20T05:16:55;11.40;;;8.60;;
10059;SDS011;5069;49.306;8.636;2022-11-20T05:19:57;11.40;;;8.10;;
10059;SDS011;5069;49.306;8.636;2022-11-20T05:22:58;12.43;;;8.60;;
10059;SDS011;5069;49.306;8.636;2022-11-20T05:26:00;10.57;;;8.00;;
10059;SDS011;5069;49.306;8.636;2022-11-20T05:29:02;13.67;;;8.37;;
10059;SDS011;5069;49.306;8.636;2022-11-20T05:32:04;10.30;;;8.50;;
10059;SDS011;5069;49.306;8.636;2022-11-20T05:35:06;11.33;;;8.60;;
10059;SDS011;5069;49.306;8.636;2022-11-20T05:38:08;10.70;;;7.93;;
10059;SDS011;5069;49.306;8.636;2022-11-20T05:41:11;12.73;;;9.60;;
10059;SDS011;5069;49.306;8.636;2022-11-20T05:44:14;12.70;;;9.13;;
10059;SDS011;5069;49.306;8.636;2022-11-20T05:47:16;10.17;;;8.50;;
10059;SDS011;5069;49.306;8.636;2022-11-20T05:50:17;10.97;;;8.20;;
10059;SDS011;5069;49.306;8.636;2022-11-20T05:53:19;11.13;;;8.80;;
10059;SDS011;5069;49.306;8.636;2022-11-20T05:56:21;10.57;;;8.07;;
10059;SDS011;5069;49.306;8.636;2022-11-20T05:59:22;12.27;;;9.40;;
10059;SDS011;5069;49.306;8.636;2022-11-20T06:02:24;14.83;;;9.73;;
10059;SDS011;5069;49.306;8.636;2022-11-20T06:05:25;15.80;;;10.43;;
10059;SDS011;5069;49.306;8.636;2022-11-20T06:08:27;10.90;;;9.03;;
10059;SDS011;5069;49.306;8.636;2022-11-20T06:11:29;10.40;;;8.50;;
10059;SDS011;5069;49.306;8.636;2022-11-20T06:14:30;10.80;;;8.27;;
10059;SDS011;5069;49.306;8.636;2022-11-20T06:17:32;10.33;;;8.13;;
10059;SDS011;5069;49.306;8.636;2022-11-20T06:20:33;11.63;;;9.03;;
10059;SDS011;5069;49.306;8.636;2022-11-20T06:23:42;10.70;;;8.40;;
10059;SDS011;5069;49.306;8.636;2022-11-20T06:26:46;12.60;;;8.50;;
10059;SDS011;5069;49.306;8.636;2022-11-20T06:29:47;10.67;;;7.73;;
10059;SDS011;5069;49.306;8.636;2022-11-20T06:32:49;9.77;;;8.03;;
10059;SDS011;5069;49.306;8.636;2022-11-20T06:35:50;10.47;;;7.57;;
10059;SDS011;5069;49.306;8.636;2022-11-20T06:39:00;11.40;;;8.00;;
10059;SDS011;5069;49.306;8.636;2022-11-20T06:42:02;9.90;;;8.00;;
10059;SDS011;5069;49.306;8.636;2022-11-20T06:45:03;11.73;;;8.40;;
10059;SDS011;5069;49.306;8.636;2022-11-20T06:48:05;13.53;;;8.33;;
10059;SDS011;5069;49.306;8.636;2022-11-20T06:51:07;9.97;;;8.10;;
10059;SDS011;5069;49.306;8.636;2022-11-20T06:54:09;10.13;;;8.33;;
10059;SDS011;5069;49.306;8.636;2022-11-20T06:57:10;10.03;;;7.97;;
10059;SDS011;5069;49.306;8.636;2022-11-20T07:00:12;9.80;;;8.20;;
10059;SDS011;5069;49.306;8.636;2022-11-20T07:03:14;9.10;;;7.77;;
10059;SDS011;5069;49.306;8.636;2022-11-20T07:06:16;10.50;;;8.07;;
10059;SDS011;5069;49.306;8.636;2022-11-20T07:09:17;9.87;;;7.23;;
10059;SDS011;5069;49.306;8.636;2022-11-20T07:12:18;9.17;;;8.00;;
10059;SDS011;5069;49.306;8.636;2022-11-20T07:15:21;9.97;;;8.13;;
10059;SDS011;5069;49.306;8.636;2022-11-20T07:18:23;11.43;;;9.63;;
10059;SDS011;5069;49.306;8.636;2022-11-20T07:21:25;9.43;;;7.47;;
10059;SDS011;5069;49.306;8.636;2022-11-20T07:24:26;9.60;;;6.90;;
10059;SDS011;5069;49.306;8.636;2022-11-20T07:27:27;10.10;;;7.20;;
10059;SDS011;5069;49.306;8.636;2022-11-20T07:30:29;8.53;;;6.47;;
10059;SDS011;5069;49.306;8.636;2022-11-20T07:33:30;7.93;;;6.10;;
10059;SDS011;5069;49.306;8.636;2022-11-20T07:36:32;7.07;;;5.43;;
10059;SDS011;5069;49.306;8.636;2022-11-20T07:39:33;7.93;;;5.77;;
10059;SDS011;5069;49.306;8.636;2022-11-20T07:42:35;8.07;;;4.40;;
10059;SDS011;5069;49.306;8.636;2022-11-20T07:45:36;4.50;;;4.10;;
10059;SDS011;5069;49.306;8.636;2022-11-20T07:48:37;5.27;;;4.00;;
10059;SDS011;5069;49.306;8.636;2022-11-20T07:51:39;4.90;;;3.40;;
10059;SDS011;5069;49.306;8.636;2022-11-20T07:54:40;7.43;;;4.00;;
10059;SDS011;5069;49.306;8.636;2022-11-20T07:57:42;4.67;;;3.80;;
10059;SDS011;5069;49.306;8.636;2022-11-20T08:00:43;4.90;;;3.67;;
10059;SDS011;5069;49.306;8.636;2022-11-20T08:03:44;4.03;;;3.63;;
10059;SDS011;5069;49.306;8.636;2022-11-20T08:06:46;5.10;;;3.70;;
10059;SDS011;5069;49.306;8.636;2022-11-20T08:09:47;4.67;;;3.90;;
10059;SDS011;5069;49.306;8.636;2022-11-20T08:12:50;4.40;;;3.80;;
10059;SDS011;5069;49.306;8.636;2022-11-20T08:16:10;6.10;;;3.33;;
10059;SDS011;5069;49.306;8.636;2022-11-20T08:19:12;4.13;;;3.33;;
10059;SDS011;5069;49.306;8.636;2022-11-20T08:22:15;4.30;;;3.40;;
10059;SDS011;5069;49.306;8.636;2022-11-20T08:25:18;3.97;;;3.57;;
10059;SDS011;5069;49.306;8.636;2022-11-20T08:28:20;3.77;;;3.37;;
10059;SDS011;5069;49.306;8.636;2022-11-20T08:31:23;5.87;;;3.43;;
10059;SDS011;5069;49.306;8.636;2022-11-20T08:34:26;5.13;;;3.20;;
10059;SDS011;5069;49.306;8.636;2022-11-20T08:37:27;6.90;;;3.90;;
10059;SDS011;5069;49.306;8.636;2022-11-20T08:40:29;3.97;;;3.47;;
10059;SDS011;5069;49.306;8.636;2022-11-20T08:43:30;7.57;;;4.67;;
10059;SDS011;5069;49.306;8.636;2022-11-20T08:49:38;6.37;;;3.93;;
10059;SDS011;5069;49.306;8.636;2022-11-20T08:52:39;4.00;;;3.37;;
10059;SDS011;5069;49.306;8.636;2022-11-20T08:55:41;5.70;;;3.70;;
10059;SDS011;5069;49.306;8.636;2022-11-20T08:58:42;3.67;;;3.33;;
10059;SDS011;5069;49.306;8.636;2022-11-20T09:02:04;4.70;;;4.07;;
10059;SDS011;5069;49.306;8.636;2022-11-20T09:05:05;5.77;;;3.67;;
10059;SDS011;5069;49.306;8.636;2022-11-20T09:08:07;3.87;;;3.47;;
10059;SDS011;5069;49.306;8.636;2022-11-20T09:11:09;3.70;;;3.33;;
10059;SDS011;5069;49.306;8.636;2022-11-20T09:14:11;6.93;;;3.43;;
10059;SDS011;5069;49.306;8.636;2022-11-20T09:17:12;4.60;;;4.10;;
10059;SDS011;5069;49.306;8.636;2022-11-20T09:20:15;3.83;;;3.10;;
10059;SDS011;5069;49.306;8.636;2022-11-20T09:23:17;4.63;;;3.23;;
10059;SDS011;5069;49.306;8.636;2022-11-20T09:26:19;5.03;;;3.70;;
10059;SDS011;5069;49.306;8.636;2022-11-20T09:29:20;4.33;;;3.57;;
10059;SDS011;5069;49.306;8.636;2022-11-20T09:32:23;8.07;;;3.77;;
10059;SDS011;5069;49.306;8.636;2022-11-20T09:35:24;5.87;;;3.37;;
10059;SDS011;5069;49.306;8.636;2022-11-20T09:38:26;6.57;;;4.03;;
10059;SDS011;5069;49.306;8.636;2022-11-20T09:45:20;5.30;;;3.50;;
10059;SDS011;5069;49.306;8.636;2022-11-20T09:55:01;4.63;;;3.40;;
10059;SDS011;5069;49.306;8.636;2022-11-20T09:58:07;4.73;;;3.53;;
10059;SDS011;5069;49.306;8.636;2022-11-20T10:01:26;4.17;;;2.93;;
10059;SDS011;5069;49.306;8.636;2022-11-20T10:04:33;4.47;;;3.37;;
10059;SDS011;5069;49.306;8.636;2022-11-20T10:11:05;3.63;;;3.10;;
10059;SDS011;5069;49.306;8.636;2022-11-20T10:21:26;3.10;;;2.80;;
10059;SDS011;5069;49.306;8.636;2022-11-20T10:24:44;3.70;;;2.87;;
10059;SDS011;5069;49.306;8.636;2022-11-20T10:31:16;4.00;;;3.13;;
10059;SDS011;5069;49.306;8.636;2022-11-20T10:37:42;2.83;;;2.57;;
10059;SDS011;5069;49.306;8.636;2022-11-20T10:40:47;3.20;;;2.80;;
10059;SDS011;5069;49.306;8.636;2022-11-20T10:47:17;2.90;;;2.50;;
10059;SDS011;5069;49.306;8.636;2022-11-20T10:50:19;2.53;;;2.30;;
10059;SDS011;5069;49.306;8.636;2022-11-20T10:56:46;3.43;;;2.00;;
10059;SDS011;5069;49.306;8.636;2022-11-20T10:59:54;2.70;;;2.30;;
10059;SDS011;5069;49.306;8.636;2022-11-20T11:03:02;2.90;;;2.60;;
10059;SDS011;5069;49.306;8.636;2022-11-20T11:06:08;2.80;;;2.53;;
10059;SDS011;5069;49.306;8.636;2022-11-20T11:09:20;5.37;;;2.80;;
10059;SDS011;5069;49.306;8.636;2022-11-20T11:12:28;3.37;;;3.00;;
10059;SDS011;5069;49.306;8.636;2022-11-20T11:15:36;3.57;;;3.13;;
10059;SDS011;5069;49.306;8.636;2022-11-20T11:18:39;4.23;;;2.77;;
10059;SDS011;5069;49.306;8.636;2022-11-20T11:21:46;4.20;;;2.90;;
10059;SDS011;5069;49.306;8.636;2022-11-20T11:24:55;3.00;;;2.57;;
10059;SDS011;5069;49.306;8.636;2022-11-20T11:27:58;5.03;;;3.00;;
10059;SDS011;5069;49.306;8.636;2022-11-20T11:31:01;2.87;;;2.50;;
10059;SDS011;5069;49.306;8.636;2022-11-20T11:34:07;3.37;;;2.50;;
10059;SDS011;5069;49.306;8.636;2022-11-20T11:37:19;4.60;;;2.43;;
10059;SDS011;5069;49.306;8.636;2022-11-20T11:40:25;2.60;;;1.80;;
10059;SDS011;5069;49.306;8.636;2022-11-20T11:43:34;2.57;;;1.90;;
10059;SDS011;5069;49.306;8.636;2022-11-20T11:46:56;5.23;;;2.00;;
10059;SDS011;5069;49.306;8.636;2022-11-20T11:53:14;4.13;;;1.70;;
10059;SDS011;5069;49.306;8.636;2022-11-20T11:56:18;4.67;;;1.67;;
10059;SDS011;5069;49.306;8.636;2022-11-20T11:59:43;6.10;;;1.73;;
10059;SDS011;5069;49.306;8.636;2022-11-20T12:03:08;2.33;;;1.50;;
10059;SDS011;5069;49.306;8.636;2022-11-20T12:06:17;3.53;;;1.83;;
10059;SDS011;5069;49.306;8.636;2022-11-20T12:09:20;6.30;;;1.93;;
10059;SDS011;5069;49.306;8.636;2022-11-20T12:12:31;4.07;;;1.63;;
10059;SDS011;5069;49.306;8.636;2022-11-20T12:15:39;3.73;;;1.70;;
10059;SDS011;5069;49.306;8.636;2022-11-20T12:18:47;3.87;;;1.83;;
10059;SDS011;5069;49.306;8.636;2022-11-20T12:25:24;2.03;;;1.63;;
10059;SDS011;5069;49.306;8.636;2022-11-20T12:28:34;3.60;;;1.50;;
10059;SDS011;5069;49.306;8.636;2022-11-20T12:48:47;3.30;;;1.80;;
10059;SDS011;5069;49.306;8.636;2022-11-20T12:52:06;4.93;;;1.57;;
10059;SDS011;5069;49.306;8.636;2022-11-20T12:55:30;5.60;;;1.30;;
10059;SDS011;5069;49.306;8.636;2022-11-20T13:01:52;2.60;;;1.30;;
10059;SDS011;5069;49.306;8.636;2022-11-20T13:08:39;3.87;;;1.30;;
10059;SDS011;5069;49.306;8.636;2022-11-20T13:11:47;2.20;;;1.00;;
10059;SDS011;5069;49.306;8.636;2022-11-20T13:15:25;5.37;;;1.30;;
10059;SDS011;5069;49.306;8.636;2022-11-20T13:18:43;1.53;;;1.10;;
10059;SDS011;5069;49.306;8.636;2022-11-20T13:21:47;2.53;;;1.00;;
10059;SDS011;5069;49.306;8.636;2022-11-20T13:24:53;2.20;;;1.47;;
10059;SDS011;5069;49.306;8.636;2022-11-20T13:27:55;4.77;;;1.60;;
10059;SDS011;5069;49.306;8.636;2022-11-20T13:30:58;1.57;;;0.80;;
10059;SDS011;5069;49.306;8.636;2022-11-20T13:34:01;3.53;;;1.17;;
10059;SDS011;5069;49.306;8.636;2022-11-20T13:37:23;2.70;;;1.00;;
10059;SDS011;5069;49.306;8.636;2022-11-20T13:40:27;3.70;;;1.50;;
10059;SDS011;5069;49.306;8.636;2022-11-20T13:43:34;2.90;;;1.10;;
10059;SDS011;5069;49.306;8.636;2022-11-20T13:46:46;5.47;;;1.20;;
10059;SDS011;5069;49.306;8.636;2022-11-20T13:49:48;2.33;;;0.90;;
10059;SDS011;5069;49.306;8.636;2022-11-20T13:56:49;3.17;;;1.03;;
10059;SDS011;5069;49.306;8.636;2022-11-20T14:00:08;2.60;;;1.20;;
10059;SDS011;5069;49.306;8.636;2022-11-20T14:03:19;3.60;;;1.07;;
10059;SDS011;5069;49.306;8.636;2022-11-20T14:06:44;2.80;;;1.10;;
10059;SDS011;5069;49.306;8.636;2022-11-20T14:09:51;3.00;;;1.10;;
10059;SDS011;5069;49.306;8.636;2022-11-20T14:12:55;3.23;;;1.50;;
10059;SDS011;5069;49.306;8.636;2022-11-20T14:15:57;4.03;;;1.23;;
10059;SDS011;5069;49.306;8.636;2022-11-20T14:22:23;1.30;;;1.13;;
10059;SDS011;5069;49.306;8.636;2022-11-20T14:25:28;1.57;;;0.90;;
10059;SDS011;5069;49.306;8.636;2022-11-20T14:28:31;2.63;;;1.20;;
10059;SDS011;5069;49.306;8.636;2022-11-20T14:31:33;1.83;;;1.03;;
10059;SDS011;5069;49.306;8.636;2022-11-20T14:34:38;3.07;;;1.10;;
10059;SDS011;5069;49.306;8.636;2022-11-20T14:37:42;2.07;;;1.33;;
10059;SDS011;5069;49.306;8.636;2022-11-20T14:40:44;2.50;;;1.30;;
10059;SDS011;5069;49.306;8.636;2022-11-20T14:43:47;4.50;;;1.30;;
10059;SDS011;5069;49.306;8.636;2022-11-20T14:46:52;4.20;;;1.50;;
10059;SDS011;5069;49.306;8.636;2022-11-20T14:49:54;2.23;;;1.20;;
10059;SDS011;5069;49.306;8.636;2022-11-20T14:52:57;1.77;;;0.90;;
10059;SDS011;5069;49.306;8.636;2022-11-20T14:56:01;3.00;;;1.30;;
10059;SDS011;5069;49.306;8.636;2022-11-20T14:59:03;5.00;;;1.40;;
10059;SDS011;5069;49.306;8.636;2022-11-20T15:02:07;3.77;;;1.40;;
10059;SDS011;5069;49.306;8.636;2022-11-20T15:05:11;1.97;;;0.90;;
10059;SDS011;5069;49.306;8.636;2022-11-20T15:08:13;1.43;;;0.80;;
10059;SDS011;5069;49.306;8.636;2022-11-20T15:11:17;2.60;;;2.20;;
10059;SDS011;5069;49.306;8.636;2022-11-20T15:14:20;4.53;;;2.70;;
10059;SDS011;5069;49.306;8.636;2022-11-20T15:17:23;4.97;;;1.57;;
10059;SDS011;5069;49.306;8.636;2022-11-20T15:20:27;4.30;;;1.80;;
10059;SDS011;5069;49.306;8.636;2022-11-20T15:23:31;2.30;;;1.30;;
10059;SDS011;5069;49.306;8.636;2022-11-20T15:26:32;3.50;;;1.70;;
10059;SDS011;5069;49.306;8.636;2022-11-20T15:29:35;2.50;;;1.63;;
10059;SDS011;5069;49.306;8.636;2022-11-20T15:32:37;6.63;;;2.50;;
10059;SDS011;5069;49.306;8.636;2022-11-20T15:35:38;4.10;;;2.17;;
10059;SDS011;5069;49.306;8.636;2022-11-20T15:38:40;3.67;;;1.53;;
10059;SDS011;5069;49.306;8.636;2022-11-20T15:41:41;4.90;;;1.77;;
10059;SDS011;5069;49.306;8.636;2022-11-20T15:44:43;4.50;;;1.43;;
10059;SDS011;5069;49.306;8.636;2022-11-20T15:47:44;3.80;;;1.40;;
10059;SDS011;5069;49.306;8.636;2022-11-20T15:50:59;3.67;;;1.30;;
10059;SDS011;5069;49.306;8.636;2022-11-20T15:54:25;4.13;;;1.67;;
10059;SDS011;5069;49.306;8.636;2022-11-20T15:57:27;5.37;;;2.63;;
10059;SDS011;5069;49.306;8.636;2022-11-20T16:00:29;2.37;;;1.60;;
10059;SDS011;5069;49.306;8.636;2022-11-20T16:03:30;4.17;;;1.40;;
10059;SDS011;5069;49.306;8.636;2022-11-20T16:06:32;5.63;;;1.60;;
10059;SDS011;5069;49.306;8.636;2022-11-20T16:09:33;4.60;;;1.90;;
10059;SDS011;5069;49.306;8.636;2022-11-20T16:12:35;6.37;;;1.70;;
10059;SDS011;5069;49.306;8.636;2022-11-20T16:15:56;4.13;;;1.87;;
10059;SDS011;5069;49.306;8.636;2022-11-20T16:18:59;2.57;;;1.30;;
10059;SDS011;5069;49.306;8.636;2022-11-20T16:22:01;2.93;;;1.40;;
10059;SDS011;5069;49.306;8.636;2022-11-20T16:25:03;2.80;;;1.37;;
10059;SDS011;5069;49.306;8.636;2022-11-20T16:28:05;3.70;;;1.50;;
10059;SDS011;5069;49.306;8.636;2022-11-20T16:31:14;3.57;;;1.50;;
10059;SDS011;5069;49.306;8.636;2022-11-20T16:34:17;2.47;;;1.70;;
10059;SDS011;5069;49.306;8.636;2022-11-20T16:37:19;4.43;;;1.50;;
10059;SDS011;5069;49.306;8.636;2022-11-20T16:40:21;4.57;;;1.80;;
10059;SDS011;5069;49.306;8.636;2022-11-20T16:43:23;5.70;;;1.90;;
10059;SDS011;5069;49.306;8.636;2022-11-20T16:46:25;5.43;;;1.60;;
10059;SDS011;5069;49.306;8.636;2022-11-20T16:49:29;5.10;;;1.70;;
10059;SDS011;5069;49.306;8.636;2022-11-20T16:52:31;3.50;;;1.83;;
10059;SDS011;5069;49.306;8.636;2022-11-20T16:55:32;2.53;;;1.60;;
10059;SDS011;5069;49.306;8.636;2022-11-20T16:58:33;4.70;;;1.90;;
10059;SDS011;5069;49.306;8.636;2022-11-20T17:01:35;3.10;;;1.40;;
10059;SDS011;5069;49.306;8.636;2022-11-20T17:04:38;4.53;;;1.50;;
10059;SDS011;5069;49.306;8.636;2022-11-20T17:07:42;6.30;;;1.63;;
10059;SDS011;5069;49.306;8.636;2022-11-20T17:10:44;4.90;;;2.40;;
10059;SDS011;5069;49.306;8.636;2022-11-20T17:13:45;5.00;;;2.33;;
10059;SDS011;5069;49.306;8.636;2022-11-20T17:16:47;3.40;;;2.03;;
10059;SDS011;5069;49.306;8.636;2022-11-20T17:19:48;5.33;;;1.93;;
10059;SDS011;5069;49.306;8.636;2022-11-20T17:22:49;4.63;;;2.10;;
10059;SDS011;5069;49.306;8.636;2022-11-20T17:25:51;2.07;;;1.77;;
10059;SDS011;5069;49.306;8.636;2022-11-20T17:28:57;3.50;;;2.10;;
10059;SDS011;5069;49.306;8.636;2022-11-20T17:32:01;4.37;;;2.50;;
10059;SDS011;5069;49.306;8.636;2022-11-20T17:35:03;2.97;;;2.00;;
10059;SDS011;5069;49.306;8.636;2022-11-20T17:38:04;4.43;;;2.40;;
10059;SDS011;5069;49.306;8.636;2022-11-20T17:44:37;2.17;;;1.33;;
10059;SDS011;5069;49.306;8.636;2022-11-20T17:47:39;3.43;;;1.13;;
10059;SDS011;5069;49.306;8.636;2022-11-20T17:50:40;1.73;;;1.10;;
10059;SDS011;5069;49.306;8.636;2022-11-20T17:53:42;2.53;;;1.30;;
10059;SDS011;5069;49.306;8.636;2022-11-20T17:56:45;2.13;;;1.40;;
10059;SDS011;5069;49.306;8.636;2022-11-20T18:00:05;4.00;;;1.30;;
10059;SDS011;5069;49.306;8.636;2022-11-20T18:03:08;3.07;;;1.40;;
10059;SDS011;5069;49.306;8.636;2022-11-20T18:06:13;3.17;;;1.60;;
10059;SDS011;5069;49.306;8.636;2022-11-20T18:09:16;4.13;;;1.67;;
10059;SDS011;5069;49.306;8.636;2022-11-20T18:12:18;3.63;;;1.73;;
10059;SDS011;5069;49.306;8.636;2022-11-20T18:15:19;2.47;;;1.83;;
10059;SDS011;5069;49.306;8.636;2022-11-20T18:18:21;3.47;;;1.43;;
10059;SDS011;5069;49.306;8.636;2022-11-20T18:21:23;2.33;;;1.50;;
10059;SDS011;5069;49.306;8.636;2022-11-20T18:24:25;3.00;;;1.50;;
10059;SDS011;5069;49.306;8.636;2022-11-20T18:27:27;3.13;;;1.63;;
10059;SDS011;5069;49.306;8.636;2022-11-20T18:30:28;3.63;;;1.30;;
10059;SDS011;5069;49.306;8.636;2022-11-20T18:33:30;5.07;;;1.67;;
10059;SDS011;5069;49.306;8.636;2022-11-20T18:36:31;1.80;;;1.30;;
10059;SDS011;5069;49.306;8.636;2022-11-20T18:39:33;2.40;;;1.27;;
10059;SDS011;5069;49.306;8.636;2022-11-20T18:42:35;4.37;;;1.80;;
10059;SDS011;5069;49.306;8.636;2022-11-20T18:46:01;4.33;;;1.50;;
10059;SDS011;5069;49.306;8.636;2022-11-20T18:49:03;2.80;;;1.50;;
10059;SDS011;5069;49.306;8.636;2022-11-20T18:52:05;2.70;;;1.33;;
10059;SDS011;5069;49.306;8.636;2022-11-20T18:55:07;2.93;;;1.30;;
10059;SDS011;5069;49.306;8.636;2022-11-20T18:58:09;2.80;;;1.37;;
10059;SDS011;5069;49.306;8.636;2022-11-20T19:01:10;2.83;;;1.60;;
10059;SDS011;5069;49.306;8.636;2022-11-20T19:04:13;3.13;;;1.77;;
10059;SDS011;5069;49.306;8.636;2022-11-20T19:07:15;4.40;;;1.37;;
10059;SDS011;5069;49.306;8.636;2022-11-20T19:10:18;2.23;;;1.60;;
10059;SDS011;5069;49.306;8.636;2022-11-20T19:13:20;4.53;;;1.70;;
10059;SDS011;5069;49.306;8.636;2022-11-20T19:16:22;2.80;;;1.87;;
10059;SDS011;5069;49.306;8.636;2022-11-20T19:19:23;3.97;;;1.90;;
10059;SDS011;5069;49.306;8.636;2022-11-20T19:22:25;3.10;;;2.30;;
10059;SDS011;5069;49.306;8.636;2022-11-20T19:25:27;4.17;;;1.87;;
10059;SDS011;5069;49.306;8.636;2022-11-20T19:28:38;3.60;;;1.80;;
10059;SDS011;5069;49.306;8.636;2022-11-20T19:31:39;2.67;;;2.00;;
10059;SDS011;5069;49.306;8.636;2022-11-20T19:34:41;3.30;;;2.00;;
10059;SDS011;5069;49.306;8.636;2022-11-20T19:37:43;2.83;;;1.80;;
10059;SDS011;5069;49.306;8.636;2022-11-20T19:40:45;3.90;;;1.80;;
10059;SDS011;5069;49.306;8.636;2022-11-20T19:43:46;4.90;;;2.20;;
10059;SDS011;5069;49.306;8.636;2022-11-20T19:46:51;3.30;;;1.60;;
10059;SDS011;5069;49.306;8.636;2022-11-20T19:49:52;3.47;;;1.50;;
10059;SDS011;5069;49.306;8.636;2022-11-20T19:52:54;3.67;;;1.70;;
10059;SDS011;5069;49.306;8.636;2022-11-20T19:55:59;2.07;;;1.60;;
10059;SDS011;5069;49.306;8.636;2022-11-20T19:59:01;3.00;;;1.60;;
10059;SDS011;5069;49.306;8.636;2022-11-20T20:02:02;3.77;;;2.00;;
10059;SDS011;5069;49.306;8.636;2022-11-20T20:05:04;3.27;;;1.77;;
10059;SDS011;5069;49.306;8.636;2022-11-20T20:08:06;4.37;;;1.90;;